Time;durP1;ratioP1;P1;durP2;ratioP2;P2;SDS_P1;SDS_P2;PMS_P1;PMS_P2;Temp;Humidity;BMP_temperature;BMP_pressure;BME280_temperature;BME280_humidity;BME280_pressure;Samples;Min_cycle;Max_cycle;Signal;HPM_P1;HPM_P2
2022/10/23 00:00:31;;;;;;;6.47;4.07;;;;;;;5.36;92.63;100816.88;4918988;29;20118;-70
2022/10/23 00:02:58;;;;;;;6.07;4.10;;;;;;;5.27;93.69;100816.69;4901768;29;20035;-70
2022/10/23 00:05:24;;;;;;;6.37;4.00;;;;;;;5.25;93.76;100813.34;4918684;29;20084;-71
2022/10/23 00:07:53;;;;;;;4.90;3.60;;;;;;;5.31;94.27;100821.72;4918573;29;20514;-71
2022/10/23 00:10:20;;;;;;;6.18;3.60;;;;;;;5.35;94.24;100815.22;4918411;29;20350;-71
2022/10/23 00:12:47;;;;;;;5.77;3.60;;;;;;;5.34;93.60;100808.25;4918504;29;20135;-72
2022/10/23 00:15:14;;;;;;;6.20;3.67;;;;;;;5.34;93.90;100816.19;4901593;29;20494;-71
2022/10/23 00:17:40;;;;;;;6.80;3.93;;;;;;;5.23;94.25;100810.00;4918394;29;20032;-71
2022/10/23 00:20:07;;;;;;;7.80;4.63;;;;;;;5.31;94.16;100808.50;4918501;29;20024;-72
2022/10/23 00:22:32;;;;;;;6.07;3.77;;;;;;;5.36;94.63;100808.97;4918527;29;20055;-71
2022/10/23 00:24:58;;;;;;;4.87;3.70;;;;;;;5.41;94.61;100798.84;4918503;29;20376;-71
2022/10/23 00:27:24;;;;;;;8.23;4.57;;;;;;;5.46;94.61;100810.69;4918437;29;20472;-70
2022/10/23 00:29:50;;;;;;;12.47;4.30;;;;;;;5.33;93.97;100782.81;4918140;29;20028;-71
2022/10/23 00:32:15;;;;;;;11.33;4.40;;;;;;;5.53;93.86;100816.31;4918092;29;20038;-72
2022/10/23 00:34:41;;;;;;;8.50;5.23;;;;;;;5.60;93.68;100806.91;4917878;29;20032;-71
2022/10/23 00:37:07;;;;;;;6.33;4.20;;;;;;;5.65;93.19;100807.34;4901210;29;20039;-71
2022/10/23 00:39:32;;;;;;;7.47;4.17;;;;;;;5.63;92.38;100796.09;4918313;29;20032;-72
2022/10/23 00:41:59;;;;;;;5.90;3.67;;;;;;;5.44;93.01;100783.56;4917772;29;20043;-71
2022/10/23 00:44:24;;;;;;;5.93;3.70;;;;;;;5.47;93.12;100787.75;4918116;29;20032;-71
2022/10/23 00:46:50;;;;;;;6.20;4.13;;;;;;;5.42;93.27;100782.03;4918098;29;20036;-71
2022/10/23 00:49:16;;;;;;;5.53;3.90;;;;;;;5.37;93.83;100785.06;4918063;29;20032;-71
2022/10/23 00:52:04;;;;;;;4.97;3.97;;;;;;;5.42;94.12;100779.41;4917885;29;20179;-70
2022/10/23 00:54:33;;;;;;;7.30;4.00;;;;;;;5.43;94.13;100771.34;4917919;29;20028;-71
2022/10/23 00:57:02;;;;;;;7.43;4.50;;;;;;;5.37;94.59;100752.53;4917637;29;20508;-71
2022/10/23 00:59:28;;;;;;;5.13;4.47;;;;;;;5.32;94.84;100766.13;4917628;29;20031;-71
2022/10/23 01:01:54;;;;;;;7.73;4.20;;;;;;;5.34;94.17;100763.38;4917628;29;20027;-71
2022/10/23 01:04:21;;;;;;;8.83;3.90;;;;;;;5.27;94.13;100750.69;4917757;29;20048;-72
2022/10/23 01:07:02;;;;;;;5.57;4.30;;;;;;;5.31;93.77;100750.41;4918163;29;20433;-72
2022/10/23 01:09:53;;;;;;;6.40;3.60;;;;;;;5.31;94.36;100755.69;4882278;29;20072;-72
2022/10/23 01:12:25;;;;;;;8.63;3.70;;;;;;;5.28;94.63;100755.00;4882029;29;20519;-72
2022/10/23 01:15:05;;;;;;;6.00;3.80;;;;;;;5.28;93.81;100754.16;4898641;29;20044;-71
2022/10/23 01:17:55;;;;;;;6.30;3.97;;;;;;;5.20;93.91;100757.44;4898670;29;20044;-72
2022/10/23 01:20:45;;;;;;;5.43;3.70;;;;;;;5.14;94.61;100747.38;4898161;29;20044;-73
2022/10/23 01:23:52;;;;;;;6.80;3.67;;;;;;;5.14;94.66;100747.38;4898565;29;20394;-71
2022/10/23 01:26:36;;;;;;;6.00;4.10;;;;;;;5.16;95.07;100742.81;4898147;29;20043;-71
2022/10/23 01:29:18;;;;;;;5.40;3.73;;;;;;;5.16;94.87;100734.88;4897796;29;20029;-71
2022/10/23 01:31:55;;;;;;;8.63;4.50;;;;;;;5.10;94.72;100732.75;4898499;29;20032;-71
2022/10/23 01:34:27;;;;;;;5.87;3.90;;;;;;;5.16;95.05;100734.88;4898333;29;20029;-71
2022/10/23 01:36:54;;;;;;;7.60;3.60;;;;;;;5.14;93.83;100725.41;4898287;29;20052;-70
2022/10/23 01:39:29;;;;;;;7.13;4.10;;;;;;;5.16;94.16;100732.25;4897926;29;20032;-71
2022/10/23 01:42:02;;;;;;;7.63;4.23;;;;;;;5.16;94.28;100729.59;4883842;29;20127;-71
2022/10/23 01:44:35;;;;;;;7.40;4.30;;;;;;;5.12;94.49;100722.06;4903129;29;20042;-71
2022/10/23 01:47:04;;;;;;;6.27;4.33;;;;;;;5.12;94.04;100728.19;4903055;29;20035;-71
2022/10/23 01:49:31;;;;;;;9.15;4.60;;;;;;;5.12;94.06;100722.91;4901488;29;20477;-71
2022/10/23 01:52:00;;;;;;;13.17;4.10;;;;;;;5.15;94.31;100725.28;4903083;29;20379;-70
2022/10/23 01:54:30;;;;;;;6.27;3.70;;;;;;;5.18;94.69;100722.38;4901651;29;20044;-71
2022/10/23 01:56:57;;;;;;;6.93;4.53;;;;;;;5.18;94.07;100722.38;4902202;29;20100;-71
2022/10/23 01:59:36;;;;;;;5.77;3.93;;;;;;;5.19;94.20;100720.59;4902735;29;20060;-72
2022/10/23 02:02:03;;;;;;;4.85;3.80;;;;;;;5.08;93.91;100716.22;4901759;29;20036;-71
2022/10/23 02:04:38;;;;;;;6.30;4.00;;;;;;;5.09;94.33;100720.53;4898336;29;20032;-71
2022/10/23 02:07:04;;;;;;;6.77;4.40;;;;;;;5.03;94.29;100720.22;4898051;29;20089;-71
2022/10/23 02:09:32;;;;;;;5.93;4.73;;;;;;;4.96;94.38;100717.25;4916608;29;20040;-72
2022/10/23 02:12:15;;;;;;;9.40;4.43;;;;;;;4.76;94.32;100683.75;4916340;29;20040;-72
2022/10/23 02:14:52;;;;;;;7.10;4.20;;;;;;;4.97;95.31;100721.56;4899001;29;20114;-71
2022/10/23 02:17:38;;;;;;;5.23;4.13;;;;;;;5.09;95.82;100719.69;4916415;29;20363;-71
2022/10/23 02:20:21;;;;;;;5.67;3.60;;;;;;;5.03;95.03;100697.28;4915558;29;20148;-71
2022/10/23 02:23:05;;;;;;;4.10;3.33;;;;;;;5.11;95.24;100708.03;4916234;29;20027;-71
2022/10/23 02:25:53;;;;;;;11.07;4.13;;;;;;;5.09;95.05;100715.25;4917017;29;20036;-71
2022/10/23 02:28:25;;;;;;;4.50;3.38;;;;;;;5.03;94.24;100713.13;4916792;29;20104;-72
2022/10/23 02:30:51;;;;;;;4.87;3.73;;;;;;;5.00;94.55;100713.38;4916387;29;20361;-71
2022/10/23 02:33:18;;;;;;;5.03;3.53;;;;;;;4.97;94.62;100708.38;4916013;29;20040;-70
2022/10/23 02:35:45;;;;;;;6.10;3.50;;;;;;;5.01;93.79;100714.22;4915177;29;20048;-71
2022/10/23 02:38:34;;;;;;;6.10;3.33;;;;;;;5.07;94.70;100709.25;4916685;29;20032;-70
2022/10/23 02:41:30;;;;;;;9.57;3.97;;;;;;;5.06;94.58;100707.59;4922982;29;20082;-70
2022/10/23 02:44:09;;;;;;;7.60;3.93;;;;;;;5.04;93.95;100698.13;4921951;29;20311;-70
2022/10/23 02:46:42;;;;;;;6.13;3.90;;;;;;;5.10;94.14;100698.44;4922578;29;20044;-71
2022/10/23 02:49:16;;;;;;;6.57;3.37;;;;;;;5.12;93.88;100690.41;4921658;29;20028;-72
2022/10/23 02:52:05;;;;;;;5.53;3.33;;;;;;;5.26;93.66;100698.00;4924666;29;20260;-70
2022/10/23 02:54:36;;;;;;;;;;;;;;;5.31;93.65;100700.25;4922013;29;20122;-70
2022/10/23 02:57:56;;;;;;;6.03;3.53;;;;;;;5.28;93.33;100694.25;4921434;29;19911;-71
2022/10/23 03:00:22;;;;;;;5.67;3.67;;;;;;;5.21;93.65;100685.19;4841566;29;20425;-70
2022/10/23 03:02:56;;;;;;;6.97;4.20;;;;;;;5.21;94.08;100687.84;4913734;29;20040;-70
2022/10/23 03:05:27;;;;;;;5.17;3.70;;;;;;;5.19;93.06;100696.81;4917027;29;20151;-71
2022/10/23 03:07:54;;;;;;;5.33;3.73;;;;;;;5.17;93.68;100693.47;4915712;29;20051;-71
2022/10/23 03:10:22;;;;;;;13.80;4.50;;;;;;;5.13;92.89;100684.16;4915764;29;20148;-71
2022/10/23 03:12:48;;;;;;;7.95;4.03;;;;;;;5.09;93.72;100675.66;4915529;29;20044;-71
2022/10/23 03:15:15;;;;;;;6.97;3.60;;;;;;;5.09;94.03;100680.94;4915522;29;20043;-71
2022/10/23 03:17:42;;;;;;;6.07;3.60;;;;;;;5.00;93.34;100671.16;4898824;29;20028;-71
2022/10/23 03:20:08;;;;;;;9.87;3.30;;;;;;;4.99;93.99;100674.75;4915612;29;20473;-71
2022/10/23 03:22:33;;;;;;;5.00;3.30;;;;;;;4.97;93.46;100674.06;4915457;29;20028;-71
2022/10/23 03:25:01;;;;;;;6.53;4.03;;;;;;;4.93;94.10;100664.72;4915516;29;20080;-71
2022/10/23 03:27:29;;;;;;;6.90;3.37;;;;;;;4.93;93.73;100664.72;4917508;29;20032;-72
2022/10/23 03:29:54;;;;;;;7.60;3.90;;;;;;;4.93;94.44;100662.09;4902340;29;20036;-71
2022/10/23 03:32:20;;;;;;;6.63;3.57;;;;;;;4.94;94.27;100661.13;4919318;29;20436;-71
2022/10/23 03:34:45;;;;;;;5.77;3.50;;;;;;;4.91;94.43;100656.91;4919454;29;20032;-72
2022/10/23 03:37:11;;;;;;;6.07;3.93;;;;;;;4.88;94.45;100666.88;4902513;29;20473;-71
2022/10/23 03:39:37;;;;;;;4.63;3.77;;;;;;;4.85;95.17;100669.78;4919291;29;20028;-71
2022/10/23 03:42:02;;;;;;;6.33;3.47;;;;;;;4.86;94.97;100674.09;4919165;29;20032;-71
2022/10/23 03:44:30;;;;;;;5.33;3.57;;;;;;;4.83;94.82;100669.09;4919299;29;20020;-71
2022/10/23 03:46:56;;;;;;;6.67;3.80;;;;;;;4.87;95.33;100665.22;4919164;29;20119;-71
2022/10/23 03:49:21;;;;;;;5.33;3.37;;;;;;;4.85;95.68;100652.16;4919138;29;20472;-70
2022/10/23 03:51:51;;;;;;;6.17;3.47;;;;;;;4.89;95.13;100647.44;4902499;29;20264;-71
2022/10/23 03:54:25;;;;;;;4.90;3.40;;;;;;;4.91;95.13;100650.78;4919729;29;20111;-70
2022/10/23 03:56:51;;;;;;;7.97;4.03;;;;;;;4.92;94.98;100648.06;4920325;29;20328;-71
2022/10/23 03:59:17;;;;;;;7.13;4.30;;;;;;;4.95;95.17;100646.97;4918841;29;20711;-70
2022/10/23 04:01:43;;;;;;;5.23;3.50;;;;;;;4.94;94.59;100651.41;4901984;29;20127;-73
2022/10/23 04:04:09;;;;;;;7.67;3.73;;;;;;;4.90;95.46;100633.28;4918784;29;20064;-71
2022/10/23 04:06:34;;;;;;;7.40;3.90;;;;;;;4.95;94.80;100646.97;4918387;29;20319;-72
2022/10/23 04:09:00;;;;;;;7.50;3.67;;;;;;;4.90;95.14;100638.56;4918240;29;20056;-72
2022/10/23 04:11:26;;;;;;;5.97;3.77;;;;;;;4.96;94.15;100644.19;4918389;29;20032;-71
2022/10/23 04:13:51;;;;;;;5.73;4.63;;;;;;;4.96;94.63;100646.00;4918487;29;20448;-71
2022/10/23 04:16:19;;;;;;;7.37;3.93;;;;;;;4.90;94.27;100638.56;4918193;29;20036;-70
2022/10/23 04:18:47;;;;;;;5.57;3.80;;;;;;;4.85;95.22;100646.03;4918326;29;20039;-71
2022/10/23 04:21:13;;;;;;;5.50;3.50;;;;;;;4.84;95.48;100639.94;4901385;29;20127;-72
2022/10/23 04:23:39;;;;;;;4.60;3.60;;;;;;;4.88;95.28;100646.63;4917909;29;20117;-71
2022/10/23 04:26:04;;;;;;;10.00;4.10;;;;;;;4.85;94.80;100646.03;4901525;29;20028;-70
2022/10/23 04:28:30;;;;;;;9.27;3.80;;;;;;;4.85;95.62;100644.22;4918696;29;20032;-71
2022/10/23 04:30:55;;;;;;;8.00;3.47;;;;;;;4.83;95.64;100642.69;4918960;29;20499;-70
2022/10/23 04:33:21;;;;;;;6.83;3.90;;;;;;;4.82;96.35;100647.13;4917955;29;20464;-70
2022/10/23 04:35:46;;;;;;;4.33;3.87;;;;;;;4.72;96.02;100629.56;4901289;29;20028;-71
2022/10/23 04:38:12;;;;;;;10.30;4.17;;;;;;;4.80;96.40;100637.69;4900585;29;20114;-71
2022/10/23 04:40:37;;;;;;;8.53;4.53;;;;;;;4.80;97.39;100642.94;4917874;29;20032;-71
2022/10/23 04:43:03;;;;;;;6.53;4.17;;;;;;;4.82;96.46;100631.31;4918008;29;20096;-71
2022/10/23 04:45:29;;;;;;;5.93;3.77;;;;;;;4.88;96.19;100641.34;4917881;29;20023;-71
2022/10/23 04:47:55;;;;;;;5.90;4.47;;;;;;;4.90;95.21;100633.28;4917705;29;20047;-70
2022/10/23 04:50:22;;;;;;;6.67;3.80;;;;;;;4.82;95.11;100626.03;4918026;29;20601;-69
2022/10/23 04:52:47;;;;;;;5.43;4.23;;;;;;;4.91;95.60;100640.25;4917782;29;20032;-71
2022/10/23 04:55:13;;;;;;;6.20;4.53;;;;;;;4.87;95.31;100644.09;4917822;29;20096;-71
2022/10/23 04:57:40;;;;;;;6.97;3.63;;;;;;;4.82;95.59;100635.75;4917838;29;20035;-71
2022/10/23 05:00:08;;;;;;;6.67;4.50;;;;;;;4.82;95.94;100647.13;4900668;29;20380;-71
2022/10/23 05:02:34;;;;;;;6.45;4.28;;;;;;;4.78;95.93;100634.34;4917625;29;20080;-72
2022/10/23 05:04:59;;;;;;;5.27;3.90;;;;;;;4.83;95.98;100637.41;4917436;29;20040;-71
2022/10/23 05:07:27;;;;;;;6.20;4.17;;;;;;;4.86;95.56;100648.56;4917349;29;20498;-72
2022/10/23 05:09:52;;;;;;;7.93;4.23;;;;;;;4.81;95.48;100626.16;4917930;29;20129;-71
2022/10/23 05:12:18;;;;;;;7.87;4.40;;;;;;;4.86;95.77;100638.00;4900737;29;20384;-72
2022/10/23 05:14:44;;;;;;;6.90;4.03;;;;;;;4.78;95.85;100634.34;4917379;29;20062;-72
2022/10/23 05:17:21;;;;;;;5.87;4.10;;;;;;;4.80;96.02;100633.25;4918110;29;20071;-71
2022/10/23 05:19:53;;;;;;;5.57;4.30;;;;;;;4.82;96.34;100635.75;4917172;29;20032;-71
2022/10/23 05:22:21;;;;;;;7.40;4.50;;;;;;;4.85;96.24;100631.03;4917374;29;20264;-72
2022/10/23 05:24:47;;;;;;;7.35;4.32;;;;;;;4.80;95.75;100617.41;4917352;29;20349;-71
2022/10/23 05:27:13;;;;;;;6.50;4.20;;;;;;;4.93;95.72;100627.78;4917082;29;20036;-71
2022/10/23 05:29:38;;;;;;;8.03;4.83;;;;;;;4.90;96.43;100622.72;4917546;29;20024;-71
2022/10/23 05:32:08;;;;;;;9.63;4.97;;;;;;;5.01;96.03;100630.59;4917511;29;20388;-71
2022/10/23 05:34:35;;;;;;;7.50;4.03;;;;;;;5.04;95.23;100630.34;4917067;29;20040;-70
2022/10/23 05:37:03;;;;;;;7.80;4.77;;;;;;;5.07;94.77;100624.78;4917571;29;20032;-71
2022/10/23 05:39:28;;;;;;;4.70;3.90;;;;;;;5.08;95.17;100620.34;4900372;29;20028;-72
2022/10/23 05:41:54;;;;;;;5.63;4.20;;;;;;;5.09;95.00;100614.09;4917152;29;20555;-71
2022/10/23 05:44:20;;;;;;;5.27;4.10;;;;;;;5.14;94.40;100619.81;4921479;29;20149;-72
2022/10/23 05:46:46;;;;;;;6.33;4.10;;;;;;;5.11;94.16;100618.28;4926104;29;20456;-71
2022/10/23 05:49:13;;;;;;;9.57;4.50;;;;;;;5.15;94.76;100617.06;4926702;29;20032;-72
2022/10/23 05:51:41;;;;;;;6.13;4.27;;;;;;;4.95;94.46;100568.63;4926004;29;20043;-71
2022/10/23 05:54:07;;;;;;;6.68;3.95;;;;;;;5.20;93.96;100608.72;4926277;29;20111;-71
2022/10/23 05:56:37;;;;;;;6.37;4.20;;;;;;;5.25;94.22;100623.22;4922315;29;20567;-72
2022/10/23 05:59:03;;;;;;;5.30;4.00;;;;;;;5.27;94.09;100623.94;4927476;29;20020;-72
2022/10/23 06:01:28;;;;;;;4.83;3.83;;;;;;;5.25;93.90;100617.94;4905299;29;20060;-72
2022/10/23 06:03:54;;;;;;;7.13;4.30;;;;;;;5.23;94.06;100622.53;4923757;29;20024;-72
2022/10/23 06:06:20;;;;;;;6.07;4.10;;;;;;;5.29;93.85;100619.34;4910198;29;20496;-71
2022/10/23 06:08:46;;;;;;;4.17;3.73;;;;;;;5.27;93.44;100626.56;4926859;29;20122;-72
2022/10/23 06:11:14;;;;;;;8.67;4.50;;;;;;;5.24;94.35;100611.00;4927461;29;20044;-72
2022/10/23 06:13:42;;;;;;;5.50;4.03;;;;;;;5.27;94.19;100608.09;4923945;29;20636;-72
2022/10/23 06:16:10;;;;;;;8.57;5.32;;;;;;;5.35;93.24;100611.88;4918918;29;20264;-72
2022/10/23 06:18:36;;;;;;;7.60;4.43;;;;;;;5.37;93.56;100608.13;4916321;29;20036;-72
2022/10/23 06:21:01;;;;;;;12.20;5.87;;;;;;;5.44;93.67;100616.34;4899529;29;20072;-72
2022/10/23 06:23:28;;;;;;;9.23;4.77;;;;;;;5.47;92.75;100616.06;4916449;29;20161;-74
2022/10/23 06:25:55;;;;;;;8.07;4.90;;;;;;;5.45;93.07;100603.00;4916372;29;20032;-73
2022/10/23 06:28:24;;;;;;;7.67;4.27;;;;;;;5.43;92.92;100599.66;4899315;29;20487;-72
2022/10/23 06:30:49;;;;;;;6.57;4.30;;;;;;;5.38;93.09;100601.03;4916476;29;20031;-74
2022/10/23 06:33:15;;;;;;;5.43;4.90;;;;;;;5.41;93.74;100613.97;4911651;29;20045;-71
2022/10/23 06:35:40;;;;;;;7.43;4.47;;;;;;;5.43;93.76;100609.38;4932432;29;20092;-70
2022/10/23 06:38:07;;;;;;;8.43;4.97;;;;;;;5.48;93.52;100613.31;4931570;29;20047;-70
2022/10/23 06:40:33;;;;;;;5.93;4.53;;;;;;;5.48;93.31;100601.91;4926823;29;20027;-70
2022/10/23 06:42:59;;;;;;;6.43;4.37;;;;;;;5.56;93.19;100599.44;4922896;29;20353;-71
2022/10/23 06:45:25;;;;;;;9.20;5.13;;;;;;;5.58;92.80;100598.34;4921827;29;20031;-72
2022/10/23 06:47:51;;;;;;;8.13;4.03;;;;;;;5.60;93.16;100598.19;4916339;29;20080;-72
2022/10/23 06:50:17;;;;;;;9.10;4.90;;;;;;;5.60;93.07;100591.13;4916404;29;20040;-73
2022/10/23 06:52:43;;;;;;;9.70;4.63;;;;;;;5.59;92.60;100584.16;4899133;29;20032;-72
2022/10/23 06:55:09;;;;;;;9.13;4.10;;;;;;;5.62;92.21;100574.28;4913744;29;20079;-74
2022/10/23 06:57:37;;;;;;;7.60;4.90;;;;;;;5.60;92.54;100582.34;4915713;29;20071;-70
2022/10/23 07:00:04;;;;;;;5.00;3.97;;;;;;;5.59;92.83;100580.69;4916114;29;20043;-75
2022/10/23 07:02:29;;;;;;;9.10;4.50;;;;;;;5.60;92.99;100574.44;4919535;29;20052;-75
2022/10/23 07:04:55;;;;;;;8.37;5.00;;;;;;;5.70;92.59;100575.28;4903164;29;20449;-74
2022/10/23 07:07:22;;;;;;;8.80;4.53;;;;;;;5.84;92.18;100577.53;4920483;29;20055;-76
2022/10/23 07:09:48;;;;;;;6.77;4.83;;;;;;;5.93;91.82;100575.06;4931099;29;20040;-77
2022/10/23 07:12:13;;;;;;;7.87;4.97;;;;;;;5.97;91.38;100571.19;4940550;29;20075;-74
2022/10/23 07:14:39;;;;;;;12.60;5.10;;;;;;;5.99;91.29;100567.44;4940587;29;20024;-77
2022/10/23 07:17:04;;;;;;;8.53;4.87;;;;;;;6.05;92.08;100568.69;4941436;29;20059;-77
2022/10/23 07:19:30;;;;;;;8.03;5.47;;;;;;;6.14;91.82;100567.88;4917172;29;20028;-70
2022/10/23 07:21:55;;;;;;;6.23;4.73;;;;;;;6.13;90.12;100555.63;4930899;29;20449;-74
2022/10/23 07:24:21;;;;;;;9.67;5.47;;;;;;;6.19;91.15;100560.34;4918969;29;20039;-72
2022/10/23 07:26:47;;;;;;;10.43;5.83;;;;;;;6.20;89.95;100559.38;4919529;29;20039;-70
2022/10/23 07:29:12;;;;;;;8.57;5.27;;;;;;;6.17;89.78;100549.06;4919842;29;20027;-71
2022/10/23 07:31:38;;;;;;;8.77;5.23;;;;;;;6.16;89.16;100548.25;4919822;29;20425;-71
2022/10/23 07:34:05;;;;;;;10.10;5.60;;;;;;;6.17;89.92;100547.28;4919634;29;20082;-71
2022/10/23 07:36:30;;;;;;;7.90;5.70;;;;;;;6.08;89.91;100534.91;4919495;29;20058;-73
2022/10/23 07:38:56;;;;;;;9.67;5.57;;;;;;;6.11;90.57;100547.84;4919415;29;20051;-74
2022/10/23 07:41:22;;;;;;;9.40;5.57;;;;;;;6.16;90.09;100556.19;4919360;29;20020;-74
2022/10/23 07:43:48;;;;;;;7.73;5.87;;;;;;;6.08;90.04;100542.00;4902362;29;20422;-74
2022/10/23 07:46:13;;;;;;;9.47;6.13;;;;;;;6.16;90.41;100544.75;4918483;29;20039;-69
2022/10/23 07:48:39;;;;;;;9.80;6.50;;;;;;;6.17;89.55;100549.06;4918864;29;20039;-69
2022/10/23 07:51:10;;;;;;;11.03;6.63;;;;;;;6.14;89.98;100541.44;4918495;29;20040;-69
2022/10/23 07:53:36;;;;;;;8.23;6.67;;;;;;;6.11;90.78;100547.84;4918983;29;20032;-72
2022/10/23 07:56:11;;;;;;;13.63;6.30;;;;;;;6.13;90.26;100539.75;4919194;29;20070;-72
2022/10/23 07:58:36;;;;;;;9.77;5.83;;;;;;;6.26;90.04;100545.59;4919653;29;20119;-74
2022/10/23 08:01:03;;;;;;;12.07;6.83;;;;;;;6.29;89.90;100542.66;4918604;29;20451;-71
2022/10/23 08:03:31;;;;;;;8.17;5.80;;;;;;;6.42;89.73;100551.16;4919021;29;20024;-71
2022/10/23 08:05:57;;;;;;;8.57;6.38;;;;;;;6.47;89.24;100551.56;4918835;29;20063;-72
2022/10/23 08:08:26;;;;;;;8.17;5.27;;;;;;;6.45;88.99;100561.44;4918841;29;20048;-73
2022/10/23 08:10:54;;;;;;;10.53;6.00;;;;;;;6.32;89.24;100539.72;4918972;29;20036;-72
2022/10/23 08:13:20;;;;;;;10.60;5.70;;;;;;;6.39;89.72;100567.31;4919223;29;20036;-76
2022/10/23 08:15:48;;;;;;;11.23;5.37;;;;;;;6.40;89.73;100549.63;4919269;29;20056;-74
2022/10/23 08:18:14;;;;;;;9.27;6.67;;;;;;;6.42;89.38;100553.81;4918747;29;20350;-72
2022/10/23 08:20:41;;;;;;;13.03;10.23;;;;;;;6.29;89.49;100534.72;4901249;29;20494;-71
2022/10/23 08:23:07;;;;;;;10.83;6.30;;;;;;;6.45;89.80;100561.44;4918519;29;20473;-72
2022/10/23 08:25:33;;;;;;;8.33;6.10;;;;;;;6.46;90.09;100560.47;4919195;29;20036;-70
2022/10/23 08:27:59;;;;;;;10.50;5.93;;;;;;;6.40;90.57;100557.56;4919070;29;20088;-74
2022/10/23 08:30:25;;;;;;;11.23;6.40;;;;;;;6.40;90.06;100546.97;4918720;29;20028;-71
2022/10/23 08:32:50;;;;;;;9.20;6.43;;;;;;;6.45;89.59;100545.59;4918522;29;20372;-72
2022/10/23 08:35:16;;;;;;;7.87;6.13;;;;;;;6.49;90.17;100559.34;4918551;29;20480;-72
2022/10/23 08:37:41;;;;;;;17.57;10.23;;;;;;;6.56;89.89;100559.63;4918323;29;20028;-73
2022/10/23 08:40:14;;;;;;;7.33;5.87;;;;;;;6.58;90.97;100555.03;4918827;29;20039;-74
2022/10/23 08:42:43;;;;;;;9.07;6.27;;;;;;;6.64;90.82;100549.16;4918723;29;20081;-72
2022/10/23 08:45:34;;;;;;;11.93;6.47;;;;;;;6.71;89.87;100555.56;4901261;29;20120;-72
2022/10/23 08:48:09;;;;;;;7.10;5.43;;;;;;;6.61;90.57;100536.22;4909227;29;20032;-71
2022/10/23 08:50:41;;;;;;;6.90;5.83;;;;;;;6.61;90.58;100552.09;4918007;29;20059;-76
2022/10/23 08:53:53;;;;;;;8.60;6.03;;;;;;;6.58;90.90;100560.31;4919005;29;20143;-77
2022/10/23 08:56:27;;;;;;;10.43;6.30;;;;;;;6.48;91.21;100545.28;4885444;29;20058;-74
2022/10/23 08:58:52;;;;;;;7.53;5.70;;;;;;;6.48;91.27;100544.47;4900208;29;20047;-75
2022/10/23 09:01:36;;;;;;;11.73;6.77;;;;;;;6.60;91.63;100547.78;4897828;29;20028;-73
2022/10/23 09:04:03;;;;;;;10.00;5.83;;;;;;;6.59;91.82;100541.66;4898788;29;20043;-72
2022/10/23 09:06:31;;;;;;;10.93;6.40;;;;;;;6.71;91.78;100544.97;4898888;29;20032;-74
2022/10/23 09:09:11;;;;;;;7.50;6.03;;;;;;;6.75;91.31;100552.50;4898570;29;20053;-74
2022/10/23 09:11:46;;;;;;;11.97;7.37;;;;;;;6.75;91.53;100551.66;4898661;29;20116;-71
2022/10/23 09:14:30;;;;;;;9.70;6.13;;;;;;;6.84;92.35;100550.78;4898112;29;20040;-77
2022/10/23 09:17:27;;;;;;;11.63;7.07;;;;;;;6.84;91.81;100545.50;4899859;29;20029;-74
2022/10/23 09:20:06;;;;;;;9.43;6.73;;;;;;;6.87;91.44;100547.00;4881876;29;20037;-74
2022/10/23 09:23:16;;;;;;;13.33;8.17;;;;;;;6.89;91.99;100548.53;4898665;29;20504;-77
2022/10/23 09:25:43;;;;;;;9.13;7.83;;;;;;;6.81;91.92;100545.78;4866078;29;20393;-81
2022/10/23 09:28:19;;;;;;;12.10;7.73;;;;;;;6.85;92.75;100549.81;4882485;29;20067;-78
2022/10/23 09:31:05;;;;;;;13.43;7.23;;;;;;;6.86;92.88;100554.13;4899524;29;20032;-79
2022/10/23 09:33:33;;;;;;;10.30;7.03;;;;;;;6.94;92.70;100545.44;4898789;29;20465;-77
2022/10/23 09:36:07;;;;;;;11.13;7.57;;;;;;;6.93;92.29;100547.25;4884616;29;20469;-77
2022/10/23 09:38:38;;;;;;;12.63;7.80;;;;;;;6.96;93.23;100549.66;4917230;29;20529;-77
2022/10/23 09:41:18;;;;;;;14.07;8.63;;;;;;;6.98;93.03;100552.97;4917524;29;20052;-74
2022/10/23 09:43:47;;;;;;;13.47;8.23;;;;;;;6.93;93.74;100544.63;4885520;29;20032;-77
2022/10/23 09:46:26;;;;;;;11.02;8.50;;;;;;;6.66;93.61;100496.94;4885086;29;20031;-79
2022/10/23 09:48:58;;;;;;;9.80;7.40;;;;;;;6.98;93.93;100530.97;4886586;29;20028;-75
2022/10/23 09:51:23;;;;;;;12.33;7.97;;;;;;;7.08;93.48;100547.66;4925455;29;20036;-77
2022/10/23 09:53:58;;;;;;;11.97;8.73;;;;;;;7.11;93.57;100542.88;4936570;29;20040;-77
2022/10/23 09:56:34;;;;;;;10.50;8.00;;;;;;;7.28;94.12;100545.75;4935085;29;20544;-76
2022/10/23 09:59:06;;;;;;;14.17;8.60;;;;;;;7.38;93.88;100541.25;4936463;29;20032;-79
2022/10/23 10:01:44;;;;;;;12.43;9.17;;;;;;;7.38;93.24;100541.25;4918727;29;20024;-76
2022/10/23 10:04:10;;;;;;;;;;;;;;;7.45;93.85;100539.66;4919811;29;20036;-79
2022/10/23 10:06:35;;;;;;;13.80;8.77;;;;;;;7.17;93.38;100492.97;4901348;29;20006;-77
2022/10/23 10:09:13;;;;;;;12.93;9.37;;;;;;;7.37;93.65;100526.31;4917577;29;20493;-78
2022/10/23 10:11:51;;;;;;;11.95;8.95;;;;;;;7.32;94.70;100539.19;4902737;29;20036;-78
2022/10/23 10:14:43;;;;;;;14.13;9.98;;;;;;;7.29;94.97;100544.78;4907384;29;20476;-80
2022/10/23 10:17:30;;;;;;;11.93;9.17;;;;;;;7.21;96.14;100537.53;4902159;29;20124;-78
2022/10/23 10:20:05;;;;;;;13.80;10.77;;;;;;;7.14;96.26;100537.31;4919000;29;20053;-78
2022/10/23 10:22:41;;;;;;;15.30;10.50;;;;;;;6.98;96.76;100528.31;4919287;29;20028;-76
2022/10/23 10:25:34;;;;;;;15.27;10.37;;;;;;;7.04;97.70;100536.50;4919385;29;20027;-80
2022/10/23 10:28:29;;;;;;;12.70;10.57;;;;;;;7.14;98.05;100539.13;4920705;29;20130;-77
2022/10/23 10:31:18;;;;;;;15.37;11.00;;;;;;;7.28;97.80;100537.81;4919298;29;20111;-74
2022/10/23 10:34:23;;;;;;;14.87;10.57;;;;;;;7.36;97.62;100536.09;4923901;29;20420;-78
2022/10/23 10:36:55;;;;;;;16.20;13.40;;;;;;;7.30;97.70;100526.09;4923998;29;20060;-78
2022/10/23 10:39:40;;;;;;;18.43;12.07;;;;;;;7.31;97.63;100532.22;4913359;29;20047;-79
2022/10/23 10:42:27;;;;;;;15.97;13.33;;;;;;;7.24;98.25;100526.69;4915533;29;20042;-75
2022/10/23 10:45:05;;;;;;;18.67;14.30;;;;;;;7.11;99.57;100531.47;4930963;29;20028;-78
2022/10/23 10:48:00;;;;;;;18.63;13.80;;;;;;;7.06;100.00;100529.25;4923283;29;20145;-80
2022/10/23 10:50:37;;;;;;;16.47;12.83;;;;;;;7.00;100.00;100519.25;4918125;29;20028;-77
2022/10/23 10:53:19;;;;;;;16.10;13.23;;;;;;;7.08;100.00;100527.28;4917715;29;20028;-78
2022/10/23 10:55:50;;;;;;;19.03;15.53;;;;;;;7.06;100.00;100513.38;4900076;29;20040;-77
2022/10/23 10:58:23;;;;;;;19.70;15.07;;;;;;;6.99;100.00;100522.88;4917651;29;20365;-76
2022/10/23 11:01:02;;;;;;;21.83;14.47;;;;;;;6.66;100.00;100484.56;4917714;29;20035;-77
2022/10/23 11:03:33;;;;;;;19.50;15.00;;;;;;;6.90;100.00;100517.59;4917317;29;20372;-78
2022/10/23 11:06:01;;;;;;;23.23;15.50;;;;;;;6.97;100.00;100514.25;4917652;29;20031;-79
2022/10/23 11:08:37;;;;;;;19.60;14.80;;;;;;;7.01;100.00;100515.63;4917555;29;20054;-77
2022/10/23 11:11:34;;;;;;;23.07;14.50;;;;;;;7.04;100.00;100517.16;4917125;29;20051;-79
2022/10/23 11:14:00;;;;;;;24.03;16.07;;;;;;;6.97;100.00;100521.38;4917502;29;20055;-85
2022/10/23 11:17:06;;;;;;;22.00;15.90;;;;;;;6.97;100.00;100524.84;4917500;29;20032;-75
2022/10/23 11:19:47;;;;;;;22.70;17.10;;;;;;;6.87;100.00;100521.38;4887881;29;20370;-79
2022/10/23 11:22:36;;;;;;;20.40;15.73;;;;;;;6.86;100.00;100521.53;4916793;29;20032;-77
2022/10/23 11:25:23;;;;;;;21.83;16.27;;;;;;;6.83;100.00;100523.47;4916360;29;20491;-77
2022/10/23 11:27:48;;;;;;;22.30;16.40;;;;;;;6.82;100.00;100516.53;4916194;29;20115;-79
2022/10/23 11:30:22;;;;;;;25.97;16.43;;;;;;;6.87;100.00;100516.09;4916826;29;20067;-80
2022/10/23 11:33:28;;;;;;;20.97;16.07;;;;;;;6.62;100.00;100469.06;4917012;29;20040;-81
2022/10/23 11:36:03;;;;;;;21.17;16.23;;;;;;;6.90;100.00;100515.78;4918307;29;20082;-79
2022/10/23 11:38:37;;;;;;;19.77;16.10;;;;;;;6.85;100.00;100510.09;4900952;29;20099;-82
2022/10/23 11:41:16;;;;;;;19.40;14.47;;;;;;;6.81;100.00;100500.78;4918427;29;20035;-77
2022/10/23 11:44:00;;;;;;;23.35;16.75;;;;;;;6.80;100.00;100507.88;4901303;29;20032;-79
2022/10/23 11:46:25;;;;;;;27.27;17.20;;;;;;;6.80;100.00;100504.41;4917019;29;20096;-78
2022/10/23 11:48:53;;;;;;;21.17;16.77;;;;;;;6.81;100.00;100498.13;4918856;29;20035;-78